Time;durP1;ratioP1;P1;durP2;ratioP2;P2;SDS_P1;SDS_P2;PMS_P1;PMS_P2;Temp;Humidity;BMP_temperature;BMP_pressure;BME280_temperature;BME280_humidity;BME280_pressure;Samples;Min_cycle;Max_cycle;Signal;HPM_P1;HPM_P2
2021/10/29 00:13:42;;;;;;;64.65;30.15;;;;;;;8.01;100.00;100960.19;714152;1177;113949;-75
2021/10/29 00:28:44;;;;;;;68.55;30.93;;;;;;;7.78;100.00;100941.62;714189;1181;113787;-75
2021/10/29 00:43:46;;;;;;;59.45;28.95;;;;;;;7.70;100.00;100938.68;714393;1201;113955;-74
2021/10/29 00:58:48;;;;;;;48.70;25.60;;;;;;;7.88;100.00;100935.78;714402;1178;113924;-74
2021/10/29 01:13:51;;;;;;;61.03;30.08;;;;;;;7.86;100.00;100919.39;714670;1200;113890;-74
2021/10/29 01:28:55;;;;;;;57.45;29.13;;;;;;;7.79;100.00;100913.74;714659;1176;114174;-74
2021/10/29 01:43:58;;;;;;;57.50;29.17;;;;;;;7.75;100.00;100896.61;714289;1200;115010;-73
2021/10/29 01:59:00;;;;;;;61.50;31.78;;;;;;;7.77;100.00;100879.89;714437;1200;113653;-76
2021/10/29 02:14:02;;;;;;;73.13;36.05;;;;;;;7.86;100.00;100861.92;715026;1200;115252;-75
2021/10/29 02:29:05;;;;;;;61.35;29.90;;;;;;;7.89;100.00;100844.27;714612;1200;113949;-74
2021/10/29 02:44:07;;;;;;;55.43;29.05;;;;;;;7.80;100.00;100840.50;715012;1177;114255;-75
2021/10/29 02:59:09;;;;;;;52.05;26.45;;;;;;;7.62;100.00;100845.17;715145;1180;114451;-76
2021/10/29 03:14:11;;;;;;;62.93;31.37;;;;;;;7.48;100.00;100838.27;715036;1200;114220;-75
2021/10/29 03:29:13;;;;;;;61.75;30.00;;;;;;;7.37;100.00;100835.52;714981;1177;113703;-74
2021/10/29 03:59:20;;;;;;;347.95;119.45;;;;;;;7.15;100.00;100820.42;714399;1200;115142;-76
2021/10/29 04:14:25;;;;;;;117.13;47.48;;;;;;;7.08;100.00;100811.34;714255;1202;115320;-75
2021/10/29 04:29:35;;;;;;;69.87;33.47;;;;;;;7.02;100.00;100796.93;714380;1202;114233;-76
2021/10/29 04:44:38;;;;;;;72.27;35.60;;;;;;;6.90;100.00;100780.30;714541;1200;113838;-76
2021/10/29 04:59:40;;;;;;;64.60;31.10;;;;;;;6.86;100.00;100775.36;714291;1200;114545;-76
2021/10/29 05:14:42;;;;;;;64.47;30.87;;;;;;;6.87;100.00;100764.00;714300;1200;115407;-75
2021/10/29 05:29:45;;;;;;;77.33;39.00;;;;;;;6.85;100.00;100752.83;714513;1200;115282;-74
2021/10/29 05:44:47;;;;;;;74.97;39.00;;;;;;;6.85;100.00;100745.86;714448;1202;115289;-74
2021/10/29 05:59:50;;;;;;;140.50;48.77;;;;;;;6.80;100.00;100753.14;714582;1183;113365;-74
2021/10/29 06:14:53;;;;;;;470.08;182.43;;;;;;;6.90;100.00;100759.44;714671;1200;114138;-74
2021/10/29 06:29:55;;;;;;;202.13;103.25;;;;;;;7.47;100.00;100775.72;714208;1201;115527;-74
2021/10/29 07:00:35;;;;;;;116.73;69.37;;;;;;;8.57;100.00;100770.79;714162;1203;114869;-73
2021/10/29 07:46:24;;;;;;;56.20;34.50;;;;;;;11.37;100.00;100768.38;714353;1200;114127;-75
2021/10/29 08:01:27;;;;;;;51.30;31.25;;;;;;;11.75;100.00;100781.89;714388;1202;114942;-74
2021/10/29 08:16:30;;;;;;;53.63;31.00;;;;;;;12.23;100.00;100777.81;714280;1200;114512;-73
2021/10/29 08:31:34;;;;;;;49.90;29.13;;;;;;;12.54;100.00;100781.21;714171;1202;115768;-69
2021/10/29 08:46:37;;;;;;;53.05;31.05;;;;;;;12.67;96.81;100759.05;714243;1200;115079;-72
2021/10/29 09:02:09;;;;;;;48.55;30.60;;;;;;;13.02;94.50;100763.77;714411;1202;114273;-71
2021/10/29 09:17:29;;;;;;;49.10;29.07;;;;;;;13.38;90.67;100748.25;714236;1200;114310;-75
2021/10/29 09:32:33;;;;;;;45.15;26.63;;;;;;;14.23;89.59;100756.09;714839;1195;114537;-76
2021/10/29 09:47:36;;;;;;;52.60;28.35;;;;;;;14.65;85.71;100754.74;715723;1204;114999;-77
2021/10/29 10:02:43;;;;;;;44.83;26.45;;;;;;;14.81;82.05;100748.78;714540;1200;114786;-76
2021/10/29 10:17:49;;;;;;;72.00;39.60;;;;;;;15.26;77.91;100723.20;714648;1203;114142;-76
2021/10/29 10:48:38;;;;;;;44.83;25.50;;;;;;;16.38;74.25;100724.03;714272;1201;114706;-76
2021/10/29 11:19:49;;;;;;;49.63;26.40;;;;;;;17.41;69.68;100693.54;718080;1189;113531;-76
2021/10/29 11:35:02;;;;;;;280.40;145.80;;;;;;;18.10;68.75;100673.53;716151;1202;114350;-76
2021/10/29 11:50:12;;;;;;;41.00;25.87;;;;;;;18.60;66.11;100656.23;714933;1200;114718;-76
2021/10/29 12:20:46;;;;;;;24.85;16.30;;;;;;;19.26;58.96;100639.67;714787;1200;114714;-71
2021/10/29 13:06:48;;;;;;;32.05;18.90;;;;;;;26.80;55.43;100592.22;714736;1205;114741;-71
2021/10/29 13:22:48;;;;;;;29.55;19.18;;;;;;;28.52;49.92;100582.45;716525;1200;114144;-73
2021/10/29 13:37:57;;;;;;;30.55;21.48;;;;;;;27.82;47.22;100587.25;716222;1199;114165;-70
2021/10/29 14:39:05;;;;;;;34.78;23.85;;;;;;;18.44;56.77;100564.23;717291;1177;114520;-74
2021/10/29 15:55:39;;;;;;;84.55;46.88;;;;;;;13.38;68.36;100555.05;715321;1176;113514;-73
2021/10/29 16:26:11;;;;;;;163.23;65.28;;;;;;;11.71;72.24;100573.69;714851;1179;114980;-72
2021/10/29 16:41:13;;;;;;;379.95;158.98;;;;;;;11.13;74.66;100571.72;714637;1189;114349;-72
2021/10/29 16:56:16;;;;;;;115.87;57.47;;;;;;;10.86;76.59;100561.77;714825;1178;114612;-72
2021/10/29 17:11:18;;;;;;;148.40;66.53;;;;;;;10.31;77.55;100557.55;715158;1205;114741;-72
2021/10/29 17:26:21;;;;;;;213.20;84.23;;;;;;;9.66;79.18;100566.23;715489;1179;114636;-72
2021/10/29 17:41:24;;;;;;;81.00;39.70;;;;;;;10.02;81.25;100559.92;714606;1203;114837;-71
2021/10/29 17:56:26;;;;;;;67.50;33.30;;;;;;;10.06;82.27;100559.55;714556;1202;114541;-71
2021/10/29 18:11:28;;;;;;;386.47;144.47;;;;;;;9.26;82.77;100544.98;714873;1202;114965;-70
2021/10/29 18:26:31;;;;;;;386.58;148.13;;;;;;;8.66;83.28;100543.41;714600;1179;114107;-71
2021/10/29 18:41:35;;;;;;;517.63;205.28;;;;;;;8.44;86.18;100545.95;714760;1202;114174;-71
2021/10/29 18:56:38;;;;;;;539.57;212.13;;;;;;;8.38;87.17;100533.33;715071;1202;114706;-72
2021/10/29 19:11:41;;;;;;;503.88;197.70;;;;;;;8.42;87.87;100535.61;715210;1177;114298;-71
2021/10/29 19:26:44;;;;;;;453.18;177.45;;;;;;;8.31;90.82;100527.72;714461;1201;114337;-72
2021/10/29 19:41:47;;;;;;;351.03;139.50;;;;;;;8.24;91.42;100529.14;714735;1201;114332;-72
2021/10/29 19:56:51;;;;;;;71.88;40.43;;;;;;;9.97;95.11;100520.99;714885;1176;114147;-71
2021/10/29 20:11:54;;;;;;;57.43;31.53;;;;;;;10.59;94.20;100524.62;715067;1200;114419;-71
2021/10/29 20:26:56;;;;;;;51.67;28.47;;;;;;;10.71;92.67;100519.30;714635;1203;114221;-72
2021/10/29 20:41:58;;;;;;;45.77;25.73;;;;;;;10.48;91.61;100509.79;715116;1178;114144;-73
2021/10/29 20:57:00;;;;;;;44.13;25.48;;;;;;;10.48;90.75;100522.09;714891;1202;114550;-72
2021/10/29 21:12:05;;;;;;;35.40;21.65;;;;;;;10.35;89.73;100501.30;715106;1177;113863;-71
2021/10/29 21:27:08;;;;;;;38.93;21.20;;;;;;;10.33;89.34;100466.45;714330;1202;114874;-71
2021/10/29 21:42:12;;;;;;;43.80;23.17;;;;;;;10.46;88.46;100461.86;714278;1203;115146;-70
2021/10/29 21:57:14;;;;;;;38.97;22.30;;;;;;;10.61;86.98;100448.41;714330;1202;114868;-71
2021/10/29 22:12:16;;;;;;;37.98;20.63;;;;;;;10.67;85.60;100437.39;714202;1200;114969;-72
2021/10/29 22:27:18;;;;;;;36.70;21.60;;;;;;;10.78;84.48;100447.81;714370;1204;113965;-72
2021/10/29 22:42:21;;;;;;;39.90;20.83;;;;;;;10.25;84.62;100440.88;714555;1203;114037;-72
2021/10/29 22:57:23;;;;;;;33.70;19.65;;;;;;;10.05;84.65;100446.98;714496;1177;114083;-71
2021/10/29 23:12:25;;;;;;;24.83;15.55;;;;;;;11.04;80.71;100438.63;714258;1201;114671;-72
2021/10/29 23:27:27;;;;;;;25.17;15.90;;;;;;;11.37;76.68;100424.30;714248;1201;113898;-71
2021/10/29 23:42:29;;;;;;;29.50;15.67;;;;;;;11.53;73.99;100431.63;714295;1202;114581;-72
2021/10/29 23:57:31;;;;;;;28.63;14.30;;;;;;;11.88;67.67;100437.31;714642;1177;114183;-72
